createdAt,value
2023-01-12T00:00:22.461Z,48.450
2023-01-12T00:01:36.097Z,45.450
2023-01-12T00:02:26.276Z,28.100
2023-01-12T00:03:26.901Z,35.600
2023-01-12T00:04:26.065Z,33.550
2023-01-12T00:05:37.055Z,45.950
2023-01-12T00:06:29.188Z,31.000
2023-01-12T00:07:26.081Z,28.100
2023-01-12T00:08:35.006Z,26.200
2023-01-12T00:09:27.285Z,24.950
2023-01-12T00:10:26.802Z,36.000
2023-01-12T00:11:23.625Z,38.500
2023-01-12T00:12:25.184Z,35.050
2023-01-12T00:13:27.549Z,40.700
2023-01-12T00:14:38.449Z,34.800
2023-01-12T00:15:30.946Z,36.300
2023-01-12T00:16:32.527Z,46.500
2023-01-12T00:17:25.855Z,34.000
2023-01-12T00:18:22.652Z,23.600
2023-01-12T00:19:27.668Z,22.750
2023-01-12T00:20:20.984Z,22.650
2023-01-12T00:21:22.897Z,22.100
2023-01-12T00:22:19.999Z,25.700
2023-01-12T00:23:28.639Z,34.700
2023-01-12T00:24:21.052Z,36.400
2023-01-12T00:25:20.939Z,38.950
2023-01-12T00:26:27.065Z,36.500
2023-01-12T00:27:28.145Z,51.200
2023-01-12T00:28:22.826Z,43.900
2023-01-12T00:29:25.896Z,32.350
2023-01-12T00:30:29.096Z,27.700
2023-01-12T00:31:25.526Z,34.400
2023-01-12T00:32:22.294Z,23.750
2023-01-12T00:33:32.815Z,27.250
2023-01-12T00:34:31.324Z,30.300
2023-01-12T00:35:22.593Z,39.750
2023-01-12T00:36:28.162Z,36.500
2023-01-12T00:37:24.968Z,36.050
2023-01-12T00:38:26.101Z,40.350
2023-01-12T00:39:21.470Z,49.500
2023-01-12T00:40:32.326Z,56.400
2023-01-12T00:41:26.465Z,34.900
2023-01-12T00:42:22.920Z,47.200
2023-01-12T00:43:29.620Z,48.600
2023-01-12T00:44:24.789Z,37.050
2023-01-12T00:45:24.924Z,34.200
2023-01-12T00:46:20.673Z,36.100
2023-01-12T00:47:31.018Z,40.800
2023-01-12T00:48:21.867Z,34.800
2023-01-12T00:49:25.739Z,24.250
2023-01-12T00:50:23.467Z,22.500
2023-01-12T00:51:29.642Z,22.450
2023-01-12T00:52:30.860Z,24.150
2023-01-12T00:53:21.274Z,23.400
2023-01-12T00:54:27.141Z,36.600
2023-01-12T00:55:27.224Z,31.550
2023-01-12T00:56:24.215Z,24.400
2023-01-12T00:57:26.917Z,22.850
2023-01-12T00:58:21.230Z,21.100
2023-01-12T00:59:27.472Z,22.150
2023-01-12T01:00:22.230Z,23.100
2023-01-12T01:01:32.746Z,38.650
2023-01-12T01:02:27.215Z,36.700
2023-01-12T01:03:24.525Z,37.000
2023-01-12T01:04:31.732Z,40.000
2023-01-12T01:05:24.502Z,26.900
2023-01-12T01:06:26.186Z,24.400
2023-01-12T01:07:26.087Z,24.500
2023-01-12T01:08:32.716Z,25.450
2023-01-12T01:09:26.847Z,48.100
2023-01-12T01:10:23.703Z,44.700
2023-01-12T01:11:20.095Z,46.100
2023-01-12T01:12:44.675Z,41.700
2023-01-12T01:13:23.567Z,26.300
2023-01-12T01:14:21.009Z,24.100
2023-01-12T01:15:19.909Z,26.300
2023-01-12T01:16:27.453Z,28.900
2023-01-12T01:17:24.226Z,45.550
2023-01-12T01:18:23.135Z,45.650
2023-01-12T01:19:28.687Z,43.400
2023-01-12T01:20:26.891Z,38.100
2023-01-12T01:21:21.673Z,29.300
2023-01-12T01:22:26.629Z,33.800
2023-01-12T01:23:26.727Z,35.550
2023-01-12T01:24:23.324Z,28.500
2023-01-12T01:25:26.296Z,29.050
2023-01-12T01:26:30.584Z,27.550
2023-01-12T01:27:24.876Z,35.300
2023-01-12T01:28:23.430Z,33.900
2023-01-12T01:29:23.019Z,59.000
2023-01-12T01:30:21.058Z,41.400
2023-01-12T01:31:22.892Z,28.800
2023-01-12T01:32:30.669Z,27.250
2023-01-12T01:33:21.381Z,27.000
2023-01-12T01:34:26.614Z,26.800
2023-01-12T01:35:20.798Z,31.400
2023-01-12T01:36:24.173Z,52.850
2023-01-12T01:37:25.041Z,52.950
2023-01-12T01:38:22.765Z,34.800
2023-01-12T01:39:26.141Z,36.100
2023-01-12T01:40:30.989Z,48.500
2023-01-12T01:41:24.633Z,44.300
2023-01-12T01:42:20.798Z,47.900
2023-01-12T01:43:27.317Z,48.150
2023-01-12T01:44:28.882Z,68.200
2023-01-12T01:45:22.801Z,75.350
2023-01-12T01:46:37.434Z,38.650
2023-01-12T01:47:22.250Z,32.100
2023-01-12T01:48:26.272Z,35.700
2023-01-12T01:49:20.647Z,35.600
2023-01-12T01:50:23.121Z,32.900
2023-01-12T01:51:23.058Z,29.100
2023-01-12T01:52:23.604Z,28.700
2023-01-12T01:53:33.612Z,32.400
2023-01-12T01:54:26.794Z,28.550
2023-01-12T01:55:25.162Z,40.300
2023-01-12T01:56:23.026Z,38.000
2023-01-12T01:57:32.431Z,27.900
2023-01-12T01:58:20.186Z,25.900
2023-01-12T01:59:23.247Z,25.700
2023-01-12T02:00:23.193Z,36.100
2023-01-12T02:08:20.442Z,36.700
2023-01-12T02:12:47.937Z,64.700
2023-01-12T02:13:32.389Z,40.850
2023-01-12T02:14:21.825Z,27.400
2023-01-12T02:15:24.018Z,26.800
2023-01-12T02:16:21.972Z,26.500
2023-01-12T02:17:20.921Z,47.600
2023-01-12T02:18:23.411Z,53.600
2023-01-12T02:19:31.860Z,53.850
2023-01-12T02:20:23.588Z,27.900
2023-01-12T02:21:25.176Z,26.550
2023-01-12T02:22:29.960Z,27.850
2023-01-12T02:23:21.580Z,27.100
2023-01-12T02:24:20.841Z,26.250
2023-01-12T02:25:32.755Z,27.800
2023-01-12T02:26:26.795Z,29.200
2023-01-12T02:27:23.886Z,34.650
2023-01-12T02:28:30.497Z,48.250
2023-01-12T02:29:22.377Z,26.000
2023-01-12T02:30:28.133Z,25.800
2023-01-12T02:31:20.818Z,25.400
2023-01-12T02:32:31.054Z,25.300
2023-01-12T02:33:29.609Z,25.400
2023-01-12T02:34:22.656Z,43.400
2023-01-12T02:35:24.553Z,49.900
2023-01-12T02:36:29.769Z,51.500
2023-01-12T02:37:20.576Z,51.150
2023-01-12T02:38:21.626Z,48.400
2023-01-12T02:39:32.460Z,44.200
2023-01-12T02:40:27.071Z,52.400
2023-01-12T02:41:27.228Z,38.100
2023-01-12T02:42:32.900Z,59.400
2023-01-12T02:43:31.674Z,45.500
2023-01-12T02:44:26.910Z,52.250
2023-01-12T02:45:20.270Z,62.300
2023-01-12T02:46:23.089Z,77.250
2023-01-12T02:47:28.629Z,61.250
2023-01-12T02:48:23.348Z,56.350
2023-01-12T02:49:32.909Z,49.300
2023-01-12T02:50:30.354Z,61.400
2023-01-12T02:51:24.964Z,59.700
2023-01-12T02:52:27.233Z,59.200
2023-01-12T02:53:23.783Z,38.150
2023-01-12T02:54:27.499Z,63.300
2023-01-12T02:55:23.086Z,32.950
2023-01-12T02:56:33.808Z,30.450
2023-01-12T02:57:28.818Z,37.300
2023-01-12T02:58:24.931Z,44.300
2023-01-12T02:59:22.483Z,49.450
2023-01-12T03:00:26.683Z,33.950
2023-01-12T03:01:21.839Z,29.100
2023-01-12T03:02:23.040Z,28.100
2023-01-12T03:03:23.930Z,29.700
2023-01-12T03:04:28.819Z,30.300
2023-01-12T03:05:24.863Z,27.600
2023-01-12T03:06:23.063Z,27.650
2023-01-12T03:07:22.869Z,28.800
2023-01-12T03:08:23.721Z,28.900
2023-01-12T03:09:25.149Z,27.550
2023-01-12T03:10:24.872Z,31.450
2023-01-12T03:11:29.469Z,35.700
2023-01-12T03:12:26.278Z,46.950
2023-01-12T03:13:22.152Z,47.300
2023-01-12T03:14:20.146Z,50.900
2023-01-12T03:15:20.535Z,54.400
2023-01-12T03:16:23.680Z,54.700
2023-01-12T03:17:27.444Z,53.850
2023-01-12T03:18:28.543Z,57.550
2023-01-12T03:19:26.607Z,51.300
2023-01-12T03:20:20.839Z,43.800
2023-01-12T03:21:23.051Z,42.150
2023-01-12T03:22:26.788Z,45.400
2023-01-12T03:23:26.488Z,37.850
2023-01-12T03:24:33.098Z,42.200
2023-01-12T03:25:29.304Z,29.200
2023-01-12T03:26:24.787Z,31.700
2023-01-12T03:27:21.500Z,40.100
2023-01-12T03:28:25.326Z,43.850
2023-01-12T03:29:31.249Z,43.550
2023-01-12T03:30:22.813Z,48.550
2023-01-12T03:31:22.038Z,47.600
2023-01-12T03:32:21.254Z,41.250
2023-01-12T03:33:25.239Z,39.750
2023-01-12T03:34:22.587Z,43.500
2023-01-12T03:35:33.477Z,44.400
2023-01-12T03:36:32.964Z,43.800
2023-01-12T03:37:28.756Z,43.300
2023-01-12T03:38:25.578Z,41.850
2023-01-12T03:39:23.911Z,37.900
2023-01-12T03:40:26.527Z,50.700
2023-01-12T03:41:20.735Z,56.850
2023-01-12T03:42:31.561Z,35.600
2023-01-12T03:43:33.027Z,37.250
2023-01-12T03:44:23.242Z,43.800
2023-01-12T03:45:23.489Z,47.300
2023-01-12T03:46:22.875Z,35.950
2023-01-12T03:47:25.091Z,43.200
2023-01-12T03:48:25.709Z,54.000
2023-01-12T03:49:32.638Z,45.150
2023-01-12T03:50:21.335Z,36.700
2023-01-12T03:51:24.410Z,39.350
2023-01-12T03:52:29.281Z,34.300
2023-01-12T03:53:20.851Z,36.400
2023-01-12T03:54:21.384Z,29.200
2023-01-12T03:55:21.431Z,25.900
2023-01-12T03:56:31.029Z,46.300
2023-01-12T03:57:28.765Z,27.200
2023-01-12T03:58:23.031Z,26.500
2023-01-12T03:59:22.500Z,35.800
2023-01-12T04:00:24.952Z,44.900
2023-01-12T04:01:25.209Z,43.000
2023-01-12T04:02:22.253Z,36.050
2023-01-12T04:03:32.172Z,36.600
2023-01-12T04:04:27.513Z,36.800
2023-01-12T04:05:26.240Z,30.000
2023-01-12T04:06:33.890Z,27.050
2023-01-12T04:07:35.833Z,23.600
2023-01-12T04:08:28.634Z,25.300
2023-01-12T04:09:21.135Z,35.350
2023-01-12T04:10:32.439Z,39.000
2023-01-12T04:11:27.056Z,27.550
2023-01-12T04:12:23.719Z,28.200
2023-01-12T04:13:33.206Z,37.700
2023-01-12T04:14:30.003Z,35.900
2023-01-12T04:15:26.486Z,32.500
2023-01-12T04:16:24.816Z,33.100
2023-01-12T04:17:32.856Z,27.600
2023-01-12T04:18:26.872Z,25.550
2023-01-12T04:19:24.566Z,24.700
2023-01-12T04:20:34.331Z,23.750
2023-01-12T04:21:29.432Z,23.200
2023-01-12T04:22:24.822Z,23.600
2023-01-12T04:23:23.700Z,22.000
2023-01-12T04:24:23.057Z,22.450
2023-01-12T04:25:29.635Z,22.300
2023-01-12T04:26:23.330Z,21.800
2023-01-12T04:27:20.045Z,22.850
2023-01-12T04:28:29.319Z,21.700
2023-01-12T04:29:26.518Z,28.600
2023-01-12T04:30:20.904Z,31.000
2023-01-12T04:31:22.783Z,33.600
2023-01-12T04:32:29.023Z,35.550
2023-01-12T04:33:26.399Z,34.900
2023-01-12T04:34:35.268Z,27.250
2023-01-12T04:35:29.187Z,27.200
2023-01-12T04:36:26.884Z,26.000
2023-01-12T04:37:21.349Z,22.100
2023-01-12T04:38:24.786Z,22.600
2023-01-12T04:39:23.538Z,27.450
2023-01-12T04:40:23.246Z,29.750
2023-01-12T04:41:33.012Z,31.550
2023-01-12T04:42:30.217Z,30.800
2023-01-12T04:43:25.794Z,32.900
2023-01-12T04:44:24.413Z,31.000
2023-01-12T04:45:36.003Z,30.800
2023-01-12T04:46:22.749Z,34.000
2023-01-12T04:47:21.408Z,28.000
2023-01-12T04:48:34.760Z,27.350
2023-01-12T04:49:29.016Z,28.800
2023-01-12T04:50:28.375Z,22.800
2023-01-12T04:51:21.224Z,25.800
2023-01-12T04:52:33.800Z,29.050
2023-01-12T04:53:29.282Z,30.750
2023-01-12T04:54:20.149Z,31.500
2023-01-12T04:55:22.645Z,26.300
2023-01-12T04:56:30.784Z,26.950
2023-01-12T04:57:24.994Z,31.000
2023-01-12T04:58:22.809Z,36.200
2023-01-12T04:59:32.579Z,24.950
2023-01-12T05:00:26.997Z,32.500
2023-01-12T05:01:23.431Z,33.800
2023-01-12T05:02:22.150Z,34.300
2023-01-12T05:03:29.696Z,35.100
2023-01-12T05:04:26.922Z,35.100
2023-01-12T05:05:21.158Z,29.000
2023-01-12T05:06:22.307Z,23.500
2023-01-12T05:07:29.192Z,25.200
2023-01-12T05:08:23.769Z,21.000
2023-01-12T05:09:22.914Z,21.000
2023-01-12T05:10:30.966Z,21.400
2023-01-12T05:11:25.661Z,20.600
2023-01-12T05:12:23.667Z,24.600
2023-01-12T05:13:24.921Z,23.700
2023-01-12T05:14:27.616Z,28.450
2023-01-12T05:15:24.744Z,25.300
2023-01-12T05:16:25.510Z,31.950
2023-01-12T05:17:22.280Z,28.700
2023-01-12T05:18:26.550Z,31.700
2023-01-12T05:19:21.086Z,30.400
2023-01-12T05:20:26.535Z,29.500
2023-01-12T05:21:29.078Z,26.900
2023-01-12T05:22:23.601Z,30.700
2023-01-12T05:23:34.269Z,27.800
2023-01-12T05:24:22.477Z,29.500
2023-01-12T05:25:24.899Z,32.800
2023-01-12T05:26:22.793Z,30.550
2023-01-12T05:27:33.001Z,26.700
2023-01-12T05:28:27.635Z,23.400
2023-01-12T05:29:24.304Z,27.650
2023-01-12T05:30:41.147Z,25.800
2023-01-12T05:31:30.312Z,28.600
2023-01-12T05:32:27.010Z,24.900
2023-01-12T05:33:20.662Z,26.200
2023-01-12T05:34:32.342Z,25.400
2023-01-12T05:35:19.327Z,23.150
2023-01-12T05:36:26.604Z,21.200
2023-01-12T05:37:33.313Z,26.400
2023-01-12T05:38:34.056Z,26.100
2023-01-12T05:39:26.786Z,30.750
2023-01-12T05:40:22.938Z,25.400
2023-01-12T05:41:36.847Z,24.600
2023-01-12T05:42:22.513Z,20.500
2023-01-12T05:43:25.348Z,20.600
2023-01-12T05:44:34.530Z,23.700
2023-01-12T05:45:30.668Z,20.800
2023-01-12T05:46:25.295Z,19.550
2023-01-12T05:47:25.194Z,19.900
2023-01-12T05:48:31.074Z,25.050
2023-01-12T05:49:27.104Z,28.000
2023-01-12T05:50:24.034Z,23.050
2023-01-12T05:51:32.967Z,26.100
2023-01-12T05:52:30.243Z,22.800
2023-01-12T05:53:20.512Z,28.600
2023-01-12T05:54:21.385Z,29.800
2023-01-12T05:55:22.479Z,32.200
2023-01-12T05:56:28.696Z,29.500
2023-01-12T05:57:23.140Z,26.500
2023-01-12T05:58:36.183Z,23.300
2023-01-12T05:59:29.089Z,22.900
2023-01-12T06:00:27.023Z,22.300
2023-01-12T06:01:21.245Z,25.050
2023-01-12T06:02:26.369Z,23.950
2023-01-12T06:03:28.050Z,30.600
2023-01-12T06:04:23.177Z,33.500
2023-01-12T06:05:34.532Z,30.500
2023-01-12T06:06:30.928Z,35.450
2023-01-12T06:07:26.647Z,36.500
2023-01-12T06:08:21.237Z,36.650
2023-01-12T06:09:32.068Z,38.000
2023-01-12T06:10:21.912Z,37.600
2023-01-12T06:11:23.245Z,33.550
2023-01-12T06:12:33.375Z,34.700
2023-01-12T06:13:30.620Z,26.800
2023-01-12T06:14:24.975Z,24.700
2023-01-12T06:15:21.577Z,26.350
2023-01-12T06:16:32.610Z,21.750
2023-01-12T06:17:28.156Z,29.900
2023-01-12T06:18:24.676Z,30.150
2023-01-12T06:19:35.675Z,28.900
2023-01-12T06:20:29.364Z,28.950
2023-01-12T06:21:26.841Z,31.900
2023-01-12T06:22:21.111Z,34.000
2023-01-12T06:23:35.633Z,24.850
2023-01-12T06:24:31.527Z,21.800
2023-01-12T06:25:22.984Z,20.200
2023-01-12T06:26:33.802Z,20.000
2023-01-12T06:27:30.201Z,19.900
2023-01-12T06:28:26.093Z,25.700
2023-01-12T06:29:22.787Z,31.250
2023-01-12T06:30:31.310Z,35.400
2023-01-12T06:31:27.465Z,35.150
2023-01-12T06:32:27.630Z,35.950
2023-01-12T06:33:19.602Z,33.300
2023-01-12T06:34:30.445Z,33.300
2023-01-12T06:35:25.345Z,30.700
2023-01-12T06:36:22.549Z,26.900
2023-01-12T06:37:33.207Z,36.250
2023-01-12T06:38:27.539Z,42.700
2023-01-12T06:39:25.132Z,35.200
2023-01-12T06:40:20.687Z,32.650
2023-01-12T06:41:29.207Z,35.400
2023-01-12T06:42:26.761Z,30.350
2023-01-12T06:43:21.396Z,33.400
2023-01-12T06:44:33.259Z,31.050
2023-01-12T06:45:27.279Z,30.450
2023-01-12T06:46:26.258Z,28.800
2023-01-12T06:47:24.327Z,34.700
2023-01-12T06:48:22.058Z,31.400
2023-01-12T06:49:25.312Z,30.450
2023-01-12T06:50:22.925Z,31.500
2023-01-12T06:51:33.038Z,22.650
2023-01-12T06:52:27.242Z,22.100
2023-01-12T06:53:21.805Z,23.250
2023-01-12T06:54:28.539Z,23.400
2023-01-12T06:55:24.969Z,22.000
2023-01-12T06:56:25.248Z,22.800
2023-01-12T06:57:21.612Z,25.450
2023-01-12T06:58:21.423Z,26.300
2023-01-12T06:59:29.155Z,25.100
2023-01-12T07:00:23.234Z,21.100
2023-01-12T07:01:29.811Z,22.900
2023-01-12T07:02:31.451Z,20.950
2023-01-12T07:03:22.041Z,22.850
2023-01-12T07:04:21.287Z,26.100
2023-01-12T07:05:26.539Z,27.350
2023-01-12T07:06:27.109Z,26.900
2023-01-12T07:07:24.396Z,32.500
2023-01-12T07:08:36.147Z,33.250
2023-01-12T07:09:19.600Z,34.400
2023-01-12T07:10:23.714Z,35.550
2023-01-12T07:11:21.615Z,37.950
2023-01-12T07:12:27.780Z,37.200
2023-01-12T07:13:28.414Z,34.550
2023-01-12T07:14:23.427Z,33.650
2023-01-12T07:15:35.556Z,29.400
2023-01-12T07:16:22.878Z,29.500
2023-01-12T07:17:25.535Z,27.650
2023-01-12T07:18:24.101Z,20.900
2023-01-12T07:19:31.797Z,21.150
2023-01-12T07:20:27.560Z,23.700
2023-01-12T07:21:23.912Z,19.200
2023-01-12T07:22:33.271Z,22.900
2023-01-12T07:23:26.861Z,21.150
2023-01-12T07:24:25.547Z,24.100
2023-01-12T07:25:21.408Z,21.400
2023-01-12T07:26:22.655Z,20.850
2023-01-12T07:27:20.643Z,28.350
2023-01-12T07:28:23.796Z,24.800
2023-01-12T07:29:34.376Z,23.100
2023-01-12T07:30:29.523Z,24.800
2023-01-12T07:31:27.192Z,30.450
2023-01-12T07:32:21.248Z,32.500
2023-01-12T07:33:25.039Z,35.400
2023-01-12T07:34:23.731Z,32.950
2023-01-12T07:35:23.476Z,27.600
2023-01-12T07:36:33.333Z,25.700
2023-01-12T07:37:32.128Z,26.100
2023-01-12T07:38:22.473Z,26.200
2023-01-12T07:39:21.580Z,24.050
2023-01-12T07:40:31.370Z,17.900
2023-01-12T07:41:24.779Z,22.300
2023-01-12T07:42:23.442Z,18.450
2023-01-12T07:43:34.099Z,21.350
2023-01-12T07:44:26.877Z,19.000
2023-01-12T07:45:21.854Z,15.150
2023-01-12T07:46:22.914Z,16.000
2023-01-12T07:47:33.914Z,18.050
2023-01-12T07:48:29.448Z,18.850
2023-01-12T07:49:19.672Z,16.400
2023-01-12T07:50:33.169Z,15.100
2023-01-12T07:51:31.267Z,18.600
2023-01-12T07:52:25.424Z,23.850
2023-01-12T07:53:22.107Z,28.000
2023-01-12T07:54:31.187Z,33.650
2023-01-12T07:55:22.794Z,32.900
2023-01-12T07:56:23.869Z,32.400
2023-01-12T07:57:33.059Z,27.850
2023-01-12T07:58:30.774Z,27.150
2023-01-12T07:59:27.371Z,25.900
2023-01-12T08:00:21.510Z,26.500
2023-01-12T08:01:29.524Z,26.800
2023-01-12T08:02:27.159Z,23.650
2023-01-12T08:03:28.120Z,20.200
2023-01-12T08:04:24.064Z,33.500
2023-01-12T08:05:30.959Z,23.800
2023-01-12T08:06:20.568Z,16.850
2023-01-12T08:07:22.024Z,18.600
2023-01-12T08:08:33.525Z,16.500
2023-01-12T08:09:27.141Z,15.600
2023-01-12T08:10:25.952Z,17.550
2023-01-12T08:11:25.838Z,17.250
2023-01-12T08:12:24.881Z,16.800
2023-01-12T08:13:25.745Z,19.050
2023-01-12T08:14:21.359Z,18.000
2023-01-12T08:15:33.031Z,20.700
2023-01-12T08:16:27.727Z,21.650
2023-01-12T08:17:23.262Z,17.500
2023-01-12T08:18:27.801Z,22.150
2023-01-12T08:19:19.649Z,24.400
2023-01-12T08:20:25.185Z,29.600
2023-01-12T08:21:24.160Z,31.400
2023-01-12T08:22:32.175Z,29.700
2023-01-12T08:23:23.347Z,29.900
2023-01-12T08:24:23.132Z,30.350
2023-01-12T08:25:34.667Z,27.800
2023-01-12T08:26:25.002Z,20.400
2023-01-12T08:27:20.805Z,24.750
2023-01-12T08:28:21.070Z,25.300
2023-01-12T08:29:28.495Z,22.300
2023-01-12T08:30:27.621Z,27.800
2023-01-12T08:31:25.761Z,31.200
2023-01-12T08:32:22.023Z,29.200
2023-01-12T08:33:31.994Z,30.200
2023-01-12T08:34:20.782Z,29.500
2023-01-12T08:35:22.640Z,19.400
2023-01-12T08:36:33.118Z,20.400
2023-01-12T08:37:27.466Z,23.850
2023-01-12T08:38:25.000Z,19.100
2023-01-12T08:39:24.844Z,21.800
2023-01-12T08:40:23.645Z,26.000
2023-01-12T08:41:26.703Z,22.200
2023-01-12T08:42:22.145Z,23.100
2023-01-12T08:43:19.479Z,22.550
2023-01-12T08:44:27.392Z,17.900
2023-01-12T08:45:24.364Z,25.100
2023-01-12T08:46:30.307Z,23.400
2023-01-12T08:47:29.335Z,30.750
2023-01-12T08:48:28.797Z,28.100
2023-01-12T08:49:26.917Z,24.850
2023-01-12T08:50:22.884Z,25.950
2023-01-12T08:51:21.824Z,23.600
2023-01-12T08:52:23.451Z,29.200
2023-01-12T08:53:33.220Z,22.250
2023-01-12T08:54:29.379Z,23.500
2023-01-12T08:55:25.365Z,19.650
2023-01-12T08:56:21.516Z,17.500
2023-01-12T08:57:23.600Z,26.050
2023-01-12T08:58:27.261Z,20.250
2023-01-12T08:59:25.096Z,16.300
2023-01-12T09:00:35.120Z,16.500
2023-01-12T09:01:20.948Z,24.200
2023-01-12T09:02:25.866Z,23.900
2023-01-12T09:03:21.463Z,25.400
2023-01-12T09:04:23.356Z,21.850
2023-01-12T09:05:21.140Z,14.000
2023-01-12T09:06:23.511Z,17.750
2023-01-12T09:07:34.610Z,18.300
2023-01-12T09:08:23.400Z,17.850
2023-01-12T09:09:27.221Z,15.550
2023-01-12T09:10:21.474Z,18.000
2023-01-12T09:11:26.460Z,16.400
2023-01-12T09:12:19.332Z,21.300
2023-01-12T09:13:23.340Z,18.800
2023-01-12T09:14:19.432Z,18.100
2023-01-12T09:15:26.673Z,16.800
2023-01-12T09:16:25.349Z,15.800
2023-01-12T09:17:23.371Z,17.300
2023-01-12T09:18:32.356Z,17.850
2023-01-12T09:19:23.863Z,22.300
2023-01-12T09:20:23.889Z,22.850
2023-01-12T09:21:19.288Z,22.800
2023-01-12T09:22:31.268Z,22.000
2023-01-12T09:23:25.927Z,28.950
2023-01-12T09:24:21.656Z,29.200
2023-01-12T09:25:25.992Z,25.500
2023-01-12T09:26:27.080Z,28.000
2023-01-12T09:27:23.135Z,22.400
2023-01-12T09:28:19.418Z,27.350
2023-01-12T09:29:29.572Z,24.450
2023-01-12T09:30:22.210Z,25.800
2023-01-12T09:31:21.710Z,34.200
2023-01-12T09:32:36.716Z,34.850
2023-01-12T09:33:29.299Z,35.300
2023-01-12T09:34:24.940Z,26.600
2023-01-12T09:35:19.466Z,29.100
2023-01-12T09:36:21.740Z,29.150
2023-01-12T09:37:22.408Z,22.900
2023-01-12T09:38:23.034Z,24.000
2023-01-12T09:39:33.596Z,26.700
2023-01-12T09:40:27.669Z,29.200
2023-01-12T09:41:23.705Z,25.950
2023-01-12T09:42:21.869Z,25.850
2023-01-12T09:43:23.273Z,24.500
2023-01-12T09:44:25.556Z,27.450
2023-01-12T09:45:21.920Z,20.500
2023-01-12T09:46:32.380Z,18.900
2023-01-12T09:47:27.427Z,23.600
2023-01-12T09:48:25.235Z,26.700
2023-01-12T09:49:25.448Z,27.700
2023-01-12T09:50:25.899Z,25.050
2023-01-12T09:51:26.121Z,26.450
2023-01-12T09:52:21.652Z,24.050
2023-01-12T09:53:24.918Z,26.300
2023-01-12T09:54:28.629Z,22.000
2023-01-12T09:55:23.721Z,26.700
2023-01-12T09:56:20.774Z,30.800
2023-01-12T09:57:28.939Z,27.250
2023-01-12T09:58:22.896Z,32.400
2023-01-12T09:59:29.796Z,29.450
2023-01-12T10:00:32.335Z,25.750
2023-01-12T10:01:30.173Z,21.600
2023-01-12T10:02:28.277Z,27.150
2023-01-12T10:03:33.277Z,29.700
2023-01-12T10:04:20.669Z,27.850
2023-01-12T10:05:38.520Z,22.950
2023-01-12T10:06:21.492Z,22.400
2023-01-12T10:07:33.032Z,22.450
2023-01-12T10:08:27.282Z,23.700
2023-01-12T10:09:23.408Z,21.900
2023-01-12T10:10:21.010Z,21.850
2023-01-12T10:11:30.829Z,17.900
2023-01-12T10:12:25.720Z,17.200
2023-01-12T10:13:26.467Z,18.550
2023-01-12T10:14:31.653Z,20.050
2023-01-12T10:15:27.959Z,25.100
2023-01-12T10:16:24.596Z,22.400
2023-01-12T10:17:20.257Z,19.750
2023-01-12T10:18:29.798Z,15.100
2023-01-12T10:19:29.276Z,19.850
2023-01-12T10:20:22.068Z,21.400
2023-01-12T10:21:23.367Z,20.200
2023-01-12T10:22:38.075Z,18.600
2023-01-12T10:23:23.313Z,19.000
2023-01-12T10:24:24.057Z,19.600
2023-01-12T10:25:40.614Z,18.800
2023-01-12T10:26:31.596Z,15.900
2023-01-12T10:27:21.488Z,15.400
2023-01-12T10:28:25.824Z,17.300
2023-01-12T10:29:43.509Z,21.000
2023-01-12T10:30:26.555Z,18.600
2023-01-12T10:31:25.618Z,12.500
2023-01-12T10:32:22.019Z,17.500
2023-01-12T10:33:37.480Z,16.400
2023-01-12T10:34:30.298Z,16.000
2023-01-12T10:35:23.368Z,16.400
2023-01-12T10:36:22.980Z,18.000
2023-01-12T10:37:43.373Z,15.600
2023-01-12T10:38:26.291Z,13.100
2023-01-12T10:39:41.195Z,16.900
2023-01-12T10:40:42.158Z,17.800
2023-01-12T10:41:34.080Z,17.600
2023-01-12T10:42:27.009Z,16.700
2023-01-12T10:43:27.019Z,14.400
2023-01-12T10:44:20.412Z,14.050
2023-01-12T10:45:31.979Z,14.750
2023-01-12T10:46:50.403Z,11.300
2023-01-12T10:47:44.914Z,11.600
2023-01-12T10:48:37.428Z,15.100
2023-01-12T10:49:21.630Z,14.100
2023-01-12T10:50:22.360Z,13.600
2023-01-12T10:51:24.188Z,12.050
2023-01-12T10:52:35.023Z,11.400
2023-01-12T10:53:21.687Z,12.400
2023-01-12T10:54:49.437Z,11.900
2023-01-12T10:55:27.787Z,11.200
2023-01-12T10:56:31.285Z,13.300
2023-01-12T10:57:26.385Z,9.000
2023-01-12T10:58:30.270Z,11.900
2023-01-12T10:59:22.009Z,12.300
2023-01-12T11:00:26.235Z,9.200
2023-01-12T11:01:33.563Z,8.700
2023-01-12T11:02:47.058Z,10.800
2023-01-12T11:03:34.213Z,10.400
2023-01-12T11:04:21.718Z,12.300
2023-01-12T11:05:23.078Z,8.900
2023-01-12T11:06:26.903Z,11.000
2023-01-12T11:07:27.718Z,10.800
2023-01-12T11:08:50.908Z,10.600
2023-01-12T11:09:50.775Z,11.400
2023-01-12T11:10:37.877Z,9.000
2023-01-12T11:11:23.420Z,9.600
2023-01-12T11:12:29.809Z,10.200
2023-01-12T11:13:20.555Z,11.250
2023-01-12T11:14:24.390Z,9.500
2023-01-12T11:16:00.641Z,8.850
2023-01-12T11:16:53.705Z,6.800
2023-01-12T11:17:20.239Z,9.300
2023-01-12T11:18:27.818Z,9.800
2023-01-12T11:19:31.856Z,11.100
2023-01-12T11:20:25.514Z,8.800
2023-01-12T11:21:27.159Z,9.200
2023-01-12T11:22:20.544Z,10.100
2023-01-12T11:23:25.635Z,7.850
2023-01-12T11:24:40.549Z,10.700
2023-01-12T11:25:30.830Z,10.700
2023-01-12T11:26:35.669Z,10.300
2023-01-12T11:27:28.351Z,8.350
2023-01-12T11:28:23.193Z,7.700
2023-01-12T11:29:24.755Z,9.700
2023-01-12T11:30:45.164Z,9.000
2023-01-12T11:31:47.182Z,9.650
2023-01-12T11:32:31.960Z,7.400
2023-01-12T11:33:42.004Z,7.900
2023-01-12T11:34:24.262Z,9.900
2023-01-12T11:35:26.983Z,9.400
2023-01-12T11:36:28.964Z,10.900
2023-01-12T11:37:21.871Z,8.900
2023-01-12T11:38:48.761Z,9.450
2023-01-12T11:39:37.340Z,8.600
2023-01-12T11:40:22.892Z,11.600
2023-01-12T11:41:37.663Z,9.850
2023-01-12T11:42:31.300Z,9.100
2023-01-12T11:43:24.451Z,9.400
2023-01-12T11:44:27.059Z,8.200
2023-01-12T11:45:52.867Z,9.000
2023-01-12T11:46:33.467Z,9.600
2023-01-12T11:47:24.778Z,8.500
2023-01-12T11:48:43.475Z,10.100
2023-01-12T11:49:35.457Z,8.600
2023-01-12T11:50:27.027Z,9.300
2023-01-12T11:51:21.457Z,9.200
2023-01-12T11:52:23.477Z,6.900
2023-01-12T11:53:41.643Z,9.300
2023-01-12T11:54:29.789Z,8.500
2023-01-12T11:55:46.499Z,8.900
2023-01-12T11:56:40.081Z,7.900
2023-01-12T11:57:32.690Z,10.600
2023-01-12T11:58:26.429Z,7.400
2023-01-12T11:59:27.735Z,8.700
2023-01-12T12:00:20.699Z,9.050
2023-01-12T12:01:32.136Z,7.900
2023-01-12T12:02:21.343Z,8.600
2023-01-12T12:03:36.251Z,8.650
2023-01-12T12:04:36.118Z,6.700
2023-01-12T12:05:29.774Z,6.400
2023-01-12T12:06:20.951Z,7.200
2023-01-12T12:07:24.804Z,5.700
2023-01-12T12:08:26.283Z,8.100
2023-01-12T12:09:20.667Z,8.200
2023-01-12T12:10:47.792Z,8.500
2023-01-12T12:11:41.792Z,8.700
2023-01-12T12:12:33.412Z,7.900
2023-01-12T12:13:24.688Z,8.700
2023-01-12T12:14:31.565Z,7.000
2023-01-12T12:15:22.788Z,6.750
2023-01-12T12:16:23.803Z,8.100
2023-01-12T12:17:50.617Z,7.600
2023-01-12T12:18:46.609Z,8.600
2023-01-12T12:19:24.615Z,10.000
2023-01-12T12:20:28.802Z,7.100
2023-01-12T12:21:21.632Z,7.100
2023-01-12T12:22:28.548Z,8.950
2023-01-12T12:23:27.004Z,8.650
2023-01-12T12:24:54.532Z,9.300
2023-01-12T12:25:31.437Z,8.400
2023-01-12T12:26:36.377Z,7.700
2023-01-12T12:27:21.858Z,8.000
2023-01-12T12:28:28.652Z,9.700
2023-01-12T12:29:30.744Z,8.100
2023-01-12T12:30:22.583Z,8.350
2023-01-12T12:31:33.394Z,9.050
2023-01-12T12:32:49.187Z,6.900
2023-01-12T12:33:45.208Z,9.800
2023-01-12T12:34:26.373Z,9.300
2023-01-12T12:35:29.349Z,9.200
2023-01-12T12:36:22.106Z,6.100
2023-01-12T12:37:28.457Z,7.400
2023-01-12T12:38:20.795Z,6.700
2023-01-12T12:39:56.184Z,7.250
2023-01-12T12:40:51.200Z,13.000
2023-01-12T12:41:29.162Z,8.500